createdAt,value
2022-11-24T00:00:39.092Z,85.06
2022-11-24T00:03:43.225Z,86.17
2022-11-24T00:06:46.949Z,85.80
2022-11-24T00:09:50.709Z,86.91
2022-11-24T00:12:54.400Z,86.09
2022-11-24T00:16:08.348Z,84.24
2022-11-24T00:19:15.885Z,84.05
2022-11-24T00:22:22.198Z,84.64
2022-11-24T00:25:25.885Z,84.66
2022-11-24T00:28:29.629Z,85.65
2022-11-24T00:31:36.764Z,84.34
2022-11-24T00:34:40.608Z,83.08
2022-11-24T00:37:44.358Z,84.40
2022-11-24T00:40:47.988Z,83.56
2022-11-24T00:43:51.748Z,83.23
2022-11-24T00:46:56.924Z,82.63
2022-11-24T00:50:00.719Z,82.86
2022-11-24T00:53:04.566Z,81.94
2022-11-24T00:56:09.028Z,81.84
2022-11-24T00:59:12.700Z,81.77
2022-11-24T01:02:17.920Z,81.68
2022-11-24T01:05:21.837Z,81.96
2022-11-24T01:08:25.598Z,83.48
2022-11-24T01:11:51.448Z,83.20
2022-11-24T01:14:55.147Z,83.52
2022-11-24T01:18:00.338Z,84.60
2022-11-24T01:21:10.022Z,83.89
2022-11-24T01:24:14.478Z,84.23
2022-11-24T01:27:18.044Z,83.77
2022-11-24T01:30:22.347Z,83.46
2022-11-24T01:33:27.662Z,83.62
2022-11-24T01:36:31.299Z,83.54
2022-11-24T01:39:35.019Z,83.24
2022-11-24T01:42:44.160Z,82.69
2022-11-24T01:45:48.967Z,82.75
2022-11-24T01:49:03.391Z,82.09
2022-11-24T01:52:12.668Z,82.32
2022-11-24T01:55:22.148Z,82.12
2022-11-24T01:58:31.539Z,82.21
2022-11-24T02:01:35.871Z,81.54
2022-11-24T02:04:41.904Z,82.13
2022-11-24T02:07:46.390Z,81.43
2022-11-24T02:10:50.252Z,81.87
2022-11-24T02:13:55.662Z,82.06
2022-11-24T02:16:59.350Z,82.16
2022-11-24T02:20:07.220Z,82.06
2022-11-24T02:23:18.742Z,81.07
2022-11-24T02:26:32.157Z,80.67
2022-11-24T02:29:35.828Z,80.53
2022-11-24T02:32:43.348Z,79.77
2022-11-24T02:35:47.078Z,80.12
2022-11-24T02:38:50.689Z,79.94
2022-11-24T02:42:00.488Z,82.31
2022-11-24T02:45:04.716Z,82.83
2022-11-24T02:48:08.855Z,80.46
2022-11-24T02:51:12.426Z,80.36
2022-11-24T02:54:16.055Z,79.64
2022-11-24T02:57:21.140Z,79.37
2022-11-24T03:00:25.028Z,79.10
2022-11-24T03:03:28.917Z,78.66
2022-11-24T03:06:32.717Z,79.00
2022-11-24T03:09:36.388Z,79.32
2022-11-24T03:12:43.408Z,79.93
2022-11-24T03:15:47.217Z,80.69
2022-11-24T03:18:52.437Z,80.12
2022-11-24T03:21:56.124Z,81.78
2022-11-24T03:24:59.798Z,80.80
2022-11-24T03:28:05.042Z,79.96
2022-11-24T03:31:09.660Z,79.65
2022-11-24T03:34:13.385Z,79.78
2022-11-24T03:37:17.328Z,81.40
2022-11-24T03:40:20.972Z,80.70
2022-11-24T03:43:26.166Z,80.39
2022-11-24T03:46:29.844Z,82.17
2022-11-24T03:49:33.703Z,80.84
2022-11-24T03:52:37.388Z,80.77
2022-11-24T03:55:40.927Z,80.01
2022-11-24T03:58:45.969Z,80.76
2022-11-24T04:01:49.808Z,80.79
2022-11-24T04:04:53.508Z,82.18
2022-11-24T04:07:57.757Z,81.04
2022-11-24T04:11:01.436Z,80.71
2022-11-24T04:14:09.203Z,80.82
2022-11-24T04:17:16.843Z,81.26
2022-11-24T04:20:20.481Z,81.38
2022-11-24T04:23:24.470Z,80.48
2022-11-24T04:26:28.111Z,83.11
2022-11-24T04:29:33.269Z,81.29
2022-11-24T04:32:37.478Z,80.89
2022-11-24T04:35:41.259Z,80.15
2022-11-24T04:39:24.246Z,79.88
2022-11-24T04:42:08.689Z,79.83
2022-11-24T04:45:13.865Z,80.20
2022-11-24T04:48:17.499Z,79.62
2022-11-24T04:51:21.238Z,79.21
2022-11-24T04:54:24.807Z,78.86
2022-11-24T04:57:28.631Z,80.26
2022-11-24T05:00:33.819Z,79.19
2022-11-24T05:03:38.165Z,78.52
2022-11-24T05:06:42.450Z,78.37
2022-11-24T05:10:03.640Z,77.75
2022-11-24T05:13:10.814Z,78.24
2022-11-24T05:16:16.018Z,78.02
2022-11-24T05:19:20.116Z,77.68
2022-11-24T05:22:23.880Z,78.20
2022-11-24T05:25:27.540Z,78.24
2022-11-24T05:28:31.929Z,78.37
2022-11-24T05:31:37.219Z,78.37
2022-11-24T05:34:40.917Z,78.59
2022-11-24T05:37:44.621Z,77.25
2022-11-24T05:40:48.332Z,77.02
2022-11-24T05:43:52.059Z,77.15
2022-11-24T05:46:57.307Z,77.30
2022-11-24T05:50:01.119Z,77.11
2022-11-24T05:53:05.949Z,77.33
2022-11-24T05:56:10.239Z,77.34
2022-11-24T05:59:13.948Z,76.75
2022-11-24T06:02:19.453Z,78.10
2022-11-24T06:05:23.419Z,76.53
2022-11-24T06:08:31.105Z,76.26
2022-11-24T06:11:35.533Z,74.12
2022-11-24T06:14:39.478Z,72.99
2022-11-24T06:17:45.238Z,74.70
2022-11-24T06:21:09.720Z,75.00
2022-11-24T06:24:13.359Z,75.07
2022-11-24T06:27:17.098Z,74.68
2022-11-24T06:30:20.928Z,71.26
2022-11-24T06:33:26.121Z,71.40
2022-11-24T06:36:29.909Z,70.25
2022-11-24T06:39:33.668Z,69.25
2022-11-24T06:42:37.998Z,69.25
2022-11-24T06:45:41.822Z,68.28
2022-11-24T06:48:47.350Z,68.73
2022-11-24T06:51:51.073Z,68.39
2022-11-24T06:54:55.139Z,67.87
2022-11-24T06:57:58.827Z,67.72
2022-11-24T07:01:02.533Z,67.81
2022-11-24T07:04:07.869Z,67.15
2022-11-24T07:07:11.703Z,67.02
2022-11-24T07:10:15.707Z,65.58
2022-11-24T07:13:19.488Z,64.46
2022-11-24T07:16:25.167Z,63.88
2022-11-24T07:19:31.410Z,63.80
2022-11-24T07:22:35.721Z,62.79
2022-11-24T07:25:39.409Z,63.14
2022-11-24T07:28:43.118Z,62.81
2022-11-24T07:31:47.363Z,60.82
2022-11-24T07:34:52.690Z,61.77
2022-11-24T07:37:57.132Z,62.13
2022-11-24T07:41:04.519Z,61.04
2022-11-24T07:44:08.759Z,61.37
2022-11-24T07:47:12.428Z,59.48
2022-11-24T07:50:18.199Z,58.58
2022-11-24T07:53:21.860Z,58.98
2022-11-24T07:56:25.601Z,58.18
2022-11-24T07:59:29.390Z,57.83
2022-11-24T08:02:33.197Z,56.95
2022-11-24T08:05:49.138Z,56.84
2022-11-24T08:09:02.147Z,57.75
2022-11-24T08:12:06.208Z,57.64
2022-11-24T08:15:11.576Z,57.90
2022-11-24T08:18:15.348Z,59.00
2022-11-24T08:21:20.898Z,56.14
2022-11-24T08:24:24.739Z,55.95
2022-11-24T08:27:28.430Z,54.46
2022-11-24T08:30:32.448Z,54.46
2022-11-24T08:33:36.971Z,53.79
2022-11-24T08:36:42.138Z,54.09
2022-11-24T08:39:45.839Z,53.06
2022-11-24T08:42:49.529Z,52.22
2022-11-24T08:45:53.274Z,52.01
2022-11-24T08:48:57.241Z,50.98
2022-11-24T08:52:02.491Z,49.82
2022-11-24T08:55:06.719Z,50.42
2022-11-24T08:58:10.499Z,50.07
2022-11-24T09:01:16.730Z,49.80
2022-11-24T09:04:20.642Z,49.19
2022-11-24T09:07:26.222Z,49.04
2022-11-24T09:10:32.340Z,48.51
2022-11-24T09:13:36.760Z,49.06
2022-11-24T09:16:40.543Z,47.72
2022-11-24T09:19:44.258Z,47.56
2022-11-24T09:22:49.366Z,47.56
2022-11-24T09:25:53.038Z,46.83
2022-11-24T09:28:58.338Z,47.08
2022-11-24T09:32:06.561Z,46.77
2022-11-24T09:35:10.940Z,48.17
2022-11-24T09:38:16.128Z,48.00
2022-11-24T09:41:34.738Z,47.22
2022-11-24T09:45:04.559Z,46.43
2022-11-24T09:48:15.986Z,46.31
2022-11-24T09:51:25.161Z,45.30
2022-11-24T09:54:33.058Z,44.87
2022-11-24T09:57:40.728Z,44.70
2022-11-24T10:00:44.641Z,46.14
2022-11-24T10:03:51.710Z,46.43
2022-11-24T10:07:06.680Z,46.75
2022-11-24T10:10:24.274Z,48.52
2022-11-24T10:14:02.041Z,48.10
2022-11-24T10:17:20.107Z,49.48
2022-11-24T10:20:30.799Z,49.15
2022-11-24T10:23:44.169Z,50.55
2022-11-24T10:26:53.309Z,50.86
2022-11-24T10:29:57.955Z,50.10
2022-11-24T10:33:05.378Z,49.33
2022-11-24T10:36:14.728Z,49.35
2022-11-24T10:39:25.008Z,49.48
2022-11-24T10:42:31.958Z,47.90
2022-11-24T10:45:37.800Z,48.34
2022-11-24T10:48:47.330Z,47.00
2022-11-24T10:52:06.219Z,47.13
2022-11-24T10:55:10.768Z,47.62
2022-11-24T10:58:18.628Z,47.40
2022-11-24T11:01:30.196Z,47.63
2022-11-24T11:04:35.977Z,47.02
2022-11-24T11:07:39.775Z,46.53
2022-11-24T11:10:44.609Z,47.03
2022-11-24T11:14:01.672Z,46.69
2022-11-24T11:17:34.211Z,47.12
2022-11-24T11:20:38.010Z,47.14
2022-11-24T11:23:42.244Z,46.39
2022-11-24T11:26:46.320Z,47.22
2022-11-24T11:36:51.481Z,45.95
2022-11-24T11:39:56.359Z,46.06
2022-11-24T11:43:05.260Z,45.31
2022-11-24T11:46:15.752Z,45.48
2022-11-24T11:49:19.516Z,45.54
2022-11-24T11:52:52.898Z,45.80
2022-11-24T11:56:07.880Z,45.66
2022-11-24T11:59:39.408Z,47.18
2022-11-24T12:03:20.262Z,48.07
2022-11-24T12:06:43.208Z,48.64
2022-11-24T12:09:57.280Z,49.59
2022-11-24T12:13:20.116Z,51.19
2022-11-24T12:16:36.247Z,51.31
2022-11-24T12:19:58.598Z,51.65
2022-11-24T12:23:13.029Z,51.79
2022-11-24T12:26:28.546Z,52.89
2022-11-24T12:30:12.191Z,53.48
2022-11-24T12:33:57.917Z,54.32
2022-11-24T12:37:35.038Z,54.78
2022-11-24T12:41:18.158Z,55.44
2022-11-24T12:44:37.446Z,55.54
2022-11-24T12:47:56.227Z,55.46
2022-11-24T12:51:01.169Z,56.25
2022-11-24T12:54:11.497Z,57.31
2022-11-24T12:57:19.797Z,57.00
2022-11-24T13:00:25.009Z,57.46
2022-11-24T13:03:41.679Z,57.85
2022-11-24T13:06:53.387Z,57.42
2022-11-24T13:14:00.015Z,57.81
2022-11-24T13:17:28.510Z,57.88
2022-11-24T13:20:35.178Z,58.04
2022-11-24T13:23:39.199Z,58.33
2022-11-24T13:26:48.977Z,58.54
2022-11-24T13:29:54.027Z,58.38
2022-11-24T13:33:24.255Z,58.91
2022-11-24T13:36:33.750Z,59.31
2022-11-24T13:39:50.667Z,59.33
2022-11-24T13:43:23.827Z,59.26
2022-11-24T13:47:03.525Z,59.15
2022-11-24T13:50:11.929Z,58.88
2022-11-24T13:53:23.749Z,59.47
2022-11-24T13:56:31.097Z,59.61
2022-11-24T13:59:36.958Z,59.10
2022-11-24T14:02:45.751Z,58.91
2022-11-24T14:05:52.447Z,58.90
2022-11-24T14:08:59.289Z,58.58
2022-11-24T14:12:16.493Z,57.88
2022-11-24T14:15:26.607Z,58.14
2022-11-24T14:18:31.618Z,57.43
2022-11-24T14:21:40.668Z,56.82
2022-11-24T14:24:45.660Z,56.56
2022-11-24T14:27:49.418Z,56.44
2022-11-24T14:31:09.086Z,55.94
2022-11-24T14:34:18.468Z,56.16
2022-11-24T14:37:22.187Z,56.87
2022-11-24T14:40:43.403Z,56.94
2022-11-24T14:43:47.171Z,56.26
2022-11-24T14:46:52.702Z,55.76
2022-11-24T14:49:58.314Z,55.67
2022-11-24T14:53:02.405Z,56.08
2022-11-24T14:56:11.030Z,56.67
2022-11-24T14:59:23.357Z,56.50
2022-11-24T15:02:48.768Z,56.44
2022-11-24T15:05:56.270Z,56.19
2022-11-24T15:09:00.091Z,56.22
2022-11-24T15:12:08.781Z,56.41
2022-11-24T15:15:21.499Z,56.56
2022-11-24T15:18:32.249Z,57.02
2022-11-24T15:21:38.269Z,56.72
2022-11-24T15:24:50.978Z,56.90
2022-11-24T15:27:54.808Z,57.38
2022-11-24T15:31:02.268Z,57.04
2022-11-24T15:34:07.988Z,57.49
2022-11-24T15:37:11.951Z,56.65
2022-11-24T15:40:16.518Z,57.08
2022-11-24T15:43:29.578Z,56.43
2022-11-24T15:46:38.445Z,56.90
2022-11-24T15:49:43.677Z,56.21
2022-11-24T15:52:49.078Z,55.28
2022-11-24T15:55:54.249Z,54.73
2022-11-24T15:58:58.328Z,54.07
2022-11-24T16:02:02.215Z,54.17
2022-11-24T16:05:08.686Z,53.68
2022-11-24T16:08:14.568Z,53.23
2022-11-24T16:11:21.321Z,53.69
2022-11-24T16:14:28.208Z,54.48
2022-11-24T16:17:32.040Z,52.78
2022-11-24T16:20:37.586Z,52.78
2022-11-24T16:23:41.828Z,53.22
2022-11-24T16:26:45.571Z,54.04
2022-11-24T16:29:49.328Z,53.36
2022-11-24T16:32:52.981Z,53.51
2022-11-24T16:35:58.978Z,53.24
2022-11-24T16:39:02.692Z,53.13
2022-11-24T16:42:06.638Z,52.81
2022-11-24T16:45:14.091Z,52.82
2022-11-24T16:48:30.242Z,53.33
2022-11-24T16:51:35.422Z,53.39
2022-11-24T16:54:39.212Z,53.13
2022-11-24T16:57:42.950Z,53.82
2022-11-24T17:00:46.623Z,53.84
2022-11-24T17:03:50.358Z,53.66
2022-11-24T17:06:55.559Z,53.53
2022-11-24T17:10:00.834Z,54.36
2022-11-24T17:13:04.668Z,54.64
2022-11-24T17:16:10.643Z,54.43
2022-11-24T17:19:14.438Z,55.42
2022-11-24T17:22:19.668Z,54.45
2022-11-24T17:25:23.430Z,55.11
2022-11-24T17:28:27.162Z,55.02
2022-11-24T17:31:32.905Z,55.57
2022-11-24T17:34:36.788Z,55.23
2022-11-24T17:37:42.299Z,55.37
2022-11-24T17:40:49.161Z,55.32
2022-11-24T17:43:55.662Z,55.17
2022-11-24T17:47:01.138Z,54.87
2022-11-24T17:50:05.079Z,54.61
2022-11-24T17:53:10.286Z,55.03
2022-11-24T17:56:15.967Z,54.58
2022-11-24T17:59:19.765Z,54.94
2022-11-24T18:02:23.610Z,54.79
2022-11-24T18:05:27.276Z,54.42
2022-11-24T18:08:33.988Z,54.60
2022-11-24T18:11:37.938Z,54.50
2022-11-24T18:14:41.678Z,54.30
2022-11-24T18:17:45.486Z,54.34
2022-11-24T18:20:55.609Z,54.57
2022-11-24T18:24:00.879Z,54.76
2022-11-24T18:27:04.629Z,55.01
2022-11-24T18:30:09.750Z,55.02
2022-11-24T18:36:19.875Z,54.81
2022-11-24T18:39:25.028Z,54.37
2022-11-24T18:42:30.699Z,54.55
2022-11-24T18:45:34.485Z,54.27
2022-11-24T18:48:38.240Z,54.92
2022-11-24T18:51:42.289Z,54.47
2022-11-24T18:54:47.499Z,54.65
2022-11-24T18:57:51.318Z,55.39
2022-11-24T19:00:55.624Z,55.14
2022-11-24T19:04:02.016Z,55.42
2022-11-24T19:07:06.028Z,55.23
2022-11-24T19:10:12.409Z,55.33
2022-11-24T19:13:16.330Z,54.95
2022-11-24T19:16:21.456Z,55.17
2022-11-24T19:19:25.239Z,54.93
2022-11-24T19:22:28.914Z,55.35
2022-11-24T19:25:34.115Z,55.37
2022-11-24T19:28:38.735Z,55.31
2022-11-24T19:31:44.102Z,55.56
2022-11-24T19:34:48.088Z,55.75
2022-11-24T19:37:51.875Z,55.16
2022-11-24T19:41:02.066Z,55.51
2022-11-24T19:44:06.187Z,55.11
2022-11-24T19:47:09.895Z,55.38
2022-11-24T19:50:14.146Z,55.78
2022-11-24T19:53:17.967Z,55.58
2022-11-24T19:56:34.417Z,55.34
2022-11-24T19:59:41.886Z,55.72
2022-11-24T20:02:52.538Z,55.44
2022-11-24T20:05:59.745Z,55.81
2022-11-24T20:09:03.498Z,55.42
2022-11-24T20:12:10.042Z,55.36
2022-11-24T20:15:13.738Z,56.02
2022-11-24T20:18:17.507Z,55.47
2022-11-24T20:21:22.928Z,55.43
2022-11-24T20:24:26.729Z,55.31
2022-11-24T20:27:31.839Z,55.31
2022-11-24T20:30:35.579Z,55.19
2022-11-24T20:33:40.807Z,55.61
2022-11-24T20:36:46.977Z,55.51
2022-11-24T20:39:52.308Z,55.32
2022-11-24T20:42:57.468Z,55.66
2022-11-24T20:46:04.194Z,56.03
2022-11-24T20:49:10.389Z,55.26
2022-11-24T20:52:14.114Z,55.66
2022-11-24T20:55:17.968Z,55.39
2022-11-24T20:58:23.128Z,55.14
2022-11-24T21:01:29.021Z,54.93
2022-11-24T21:04:35.614Z,54.85
2022-11-24T21:07:39.558Z,54.66
2022-11-24T21:10:43.269Z,54.75
2022-11-24T21:13:49.478Z,54.44
2022-11-24T21:16:54.027Z,54.70
2022-11-24T21:20:01.004Z,54.77
2022-11-24T21:23:07.209Z,54.78
2022-11-24T21:26:16.562Z,54.77
2022-11-24T21:29:25.891Z,54.59
2022-11-24T21:32:29.678Z,54.28
2022-11-24T21:35:36.716Z,54.73
2022-11-24T21:38:44.879Z,55.13
2022-11-24T21:41:49.178Z,55.35
2022-11-24T21:44:54.326Z,55.43
2022-11-24T21:47:58.219Z,55.39
2022-11-24T21:51:03.166Z,55.02
2022-11-24T21:54:07.297Z,54.77
2022-11-24T21:57:11.058Z,54.99
2022-11-24T22:00:17.558Z,55.27
2022-11-24T22:03:22.206Z,55.62
2022-11-24T22:06:26.288Z,56.13
2022-11-24T22:09:29.984Z,56.32
2022-11-24T22:12:33.668Z,56.14
2022-11-24T22:15:38.678Z,56.25
2022-11-24T22:18:43.908Z,56.70
2022-11-24T22:21:47.687Z,56.11
2022-11-24T22:24:51.428Z,56.46
2022-11-24T22:27:55.189Z,56.13
2022-11-24T22:31:00.412Z,56.60
2022-11-24T22:34:04.169Z,56.23
2022-11-24T22:37:07.948Z,56.09
2022-11-24T22:40:12.236Z,56.40
2022-11-24T22:43:20.230Z,56.27
2022-11-24T22:46:29.730Z,56.73
2022-11-24T22:49:33.349Z,56.94
2022-11-24T22:52:37.720Z,56.45
2022-11-24T22:55:41.518Z,56.32
2022-11-24T22:58:45.688Z,56.73
2022-11-24T23:01:50.806Z,57.18
2022-11-24T23:04:54.507Z,56.84
2022-11-24T23:07:58.188Z,56.64
2022-11-24T23:11:03.020Z,56.86
2022-11-24T23:14:08.100Z,56.67
2022-11-24T23:17:13.250Z,56.62
2022-11-24T23:20:17.240Z,57.28
2022-11-24T23:23:20.985Z,57.60
2022-11-24T23:26:26.873Z,57.10
2022-11-24T23:29:30.470Z,57.53
2022-11-24T23:32:35.580Z,57.30
2022-11-24T23:35:39.321Z,56.88
2022-11-24T23:38:43.530Z,57.18
2022-11-24T23:41:49.990Z,57.26
2022-11-24T23:44:56.480Z,56.78
2022-11-24T23:48:02.561Z,57.02
2022-11-24T23:51:08.659Z,56.83
2022-11-24T23:54:12.514Z,57.04
2022-11-24T23:57:16.332Z,56.76
